^^
Your Local Weather - Clay, NY Station Historical Data
Daily Summary for June 29, 2017 Units:  English    Metric   Both
« Previous Day
Next Day »
Daily Weekly Monthly Yearly Custom
  High: Low: Average:
Temperature: 74.3 °F 58.9 °F 65 °F
Dew Point: 66.0 °F 54.0 °F 59.5 °F
Humidity: 94% 59% 83%
Wind Speed: 5.0mph 0.0mph 0.9mph
Wind Gust: 9.0mph - -
Wind- - SSE
Pressure: 30.04 in 29.82 in -
Precipitation: 0.22 in    
Historical Graphs
 
 
Tabular Data for June 29, 2017
Time Temperature Dew Point Pressure Wind Wind Speed Wind Gust Humidity Rainfall Rate (Hourly) solar
00:00 59.1 °F 55.2 °F 30.00 in Calm     87% 0.00 in 0 W/m2
00:06 59.2 °F 55.6 °F 30.00 in Calm     88% 0.00 in 0 W/m2
00:12 59.2 °F 55.6 °F 30.00 in Calm     88% 0.00 in 0 W/m2
00:18 59.0 °F 55.4 °F 30.00 in Calm     88% 0.00 in 0 W/m2
00:24 58.9 °F 55.4 °F 30.01 in Calm     88% 0.00 in 0 W/m2
00:32 58.9 °F 55.4 °F 30.01 in Calm     88% 0.00 in 0 W/m2
00:38 58.9 °F 55.7 °F 30.01 in Calm     89% 0.00 in 0 W/m2
00:44 59.1 °F 55.9 °F 30.01 in Calm     89% 0.00 in 0 W/m2
00:50 59.1 °F 55.9 °F 30.01 in Calm     89% 0.00 in 0 W/m2
00:56 59.2 °F 56.0 °F 30.01 in Calm     89% 0.00 in 0 W/m2
01:02 59.2 °F 56.0 °F 30.01 in Calm     89% 0.00 in 0 W/m2
01:08 59.4 °F 56.2 °F 30.01 in Calm     89% 0.00 in 0 W/m2
01:14 59.6 °F 56.4 °F 30.01 in Calm     89% 0.00 in 0 W/m2
01:20 59.7 °F 56.1 °F 30.01 in Calm     88% 0.00 in 0 W/m2
01:26 59.7 °F 56.1 °F 30.01 in Calm     88% 0.00 in 0 W/m2
01:32 59.7 °F 56.1 °F 30.01 in Calm     88% 0.00 in 0 W/m2
01:38 59.7 °F 56.1 °F 30.01 in Calm     88% 0.00 in 0 W/m2
01:44 59.7 °F 56.5 °F 30.01 in Calm     89% 0.00 in 0 W/m2
01:50 59.7 °F 56.5 °F 30.01 in Calm     89% 0.00 in 0 W/m2
01:56 59.7 °F 56.5 °F 30.01 in Calm     89% 0.00 in 0 W/m2
02:02 59.7 °F 56.5 °F 30.01 in Calm     89% 0.00 in 0 W/m2
02:08 59.6 °F 56.4 °F 30.01 in Calm     89% 0.00 in 0 W/m2
02:14 59.6 °F 56.4 °F 30.01 in Calm     89% 0.00 in 0 W/m2
02:20 59.6 °F 56.4 °F 30.01 in Calm     89% 0.00 in 0 W/m2
02:26 59.5 °F 56.6 °F 30.00 in Calm     90% 0.00 in 0 W/m2
02:32 59.5 °F 56.6 °F 30.01 in Calm     90% 0.00 in 0 W/m2
02:38 59.5 °F 56.3 °F 30.01 in Calm     89% 0.00 in 0 W/m2
02:44 59.5 °F 56.6 °F 30.01 in Calm     90% 0.00 in 0 W/m2
02:50 59.6 °F 56.7 °F 30.01 in Calm     90% 0.00 in 0 W/m2
02:56 59.5 °F 56.3 °F 30.00 in Calm     89% 0.00 in 0 W/m2
03:02 59.5 °F 56.3 °F 30.00 in Calm     89% 0.00 in 0 W/m2
03:08 59.5 °F 56.3 °F 30.00 in Calm     89% 0.00 in 0 W/m2
03:14 59.6 °F 56.4 °F 30.01 in Calm     89% 0.00 in 0 W/m2
03:20 59.6 °F 56.4 °F 30.01 in Calm     89% 0.00 in 0 W/m2
03:26 59.6 °F 56.4 °F 30.01 in Calm     89% 0.00 in 0 W/m2
03:32 59.5 °F 56.3 °F 30.01 in Calm     89% 0.00 in 0 W/m2
03:38 59.5 °F 56.3 °F 30.01 in Calm     89% 0.00 in 0 W/m2
03:44 59.5 °F 56.3 °F 30.01 in Calm     89% 0.00 in 0 W/m2
03:50 59.5 °F 56.3 °F 30.01 in Calm     89% 0.00 in 0 W/m2
03:56 59.5 °F 56.3 °F 30.01 in Calm     89% 0.00 in 0 W/m2
04:02 59.5 °F 56.3 °F 30.01 in Calm     89% 0.00 in 0 W/m2
04:08 59.6 °F 56.0 °F 30.01 in Calm     88% 0.00 in 0 W/m2
04:14 59.6 °F 56.0 °F 30.01 in Calm     88% 0.00 in 0 W/m2
04:20 59.6 °F 56.0 °F 30.01 in Calm     88% 0.00 in 0 W/m2
04:32 59.9 °F 56.0 °F 30.01 in Calm     87% 0.00 in 0 W/m2
04:38 60.2 °F 56.3 °F 30.01 in Calm   1.0 mph 87% 0.00 in 0 W/m2
04:44 60.0 °F 55.8 °F 29.99 in West 1.0 mph 2.0 mph 86% 0.00 in 0 W/m2
04:50 59.9 °F 56.0 °F 30.00 in West 1.0 mph 1.0 mph 87% 0.00 in 0 W/m2
04:56 59.9 °F 56.0 °F 30.01 in Calm   1.0 mph 87% 0.00 in 0 W/m2
05:02 60.3 °F 55.8 °F 30.02 in West 1.0 mph 2.0 mph 85% 0.00 in 0 W/m2
05:08 60.9 °F 55.7 °F 30.01 in West 1.0 mph 2.0 mph 83% 0.00 in 0 W/m2
05:14 61.5 °F 55.3 °F 30.02 in West 1.0 mph 2.0 mph 80% 0.00 in 0 W/m2
05:20 61.9 °F 55.0 °F 30.02 in West 1.0 mph 1.0 mph 78% 0.00 in 0 W/m2
05:26 62.0 °F 55.1 °F 30.02 in Calm   1.0 mph 78% 0.00 in 0 W/m2
05:32 61.7 °F 56.1 °F 30.02 in Calm     82% 0.00 in 0 W/m2
05:38 61.5 °F 56.3 °F 30.03 in Calm     83% 0.00 in 0 W/m2
05:44 61.5 °F 55.3 °F 30.03 in Calm     80% 0.00 in 5 W/m2
05:50 61.2 °F 55.7 °F 30.01 in NE 1.0 mph 1.0 mph 82% 0.00 in 9 W/m2
05:56 61.3 °F 54.7 °F 30.04 in WSW 2.0 mph 4.0 mph 79% 0.00 in 9 W/m2
06:02 62.7 °F 54.3 °F 30.03 in SW 2.0 mph 4.0 mph 74% 0.00 in 9 W/m2
06:08 63.7 °F 54.5 °F 30.02 in SW 2.0 mph 4.0 mph 72% 0.00 in 12 W/m2
06:14 62.6 °F 55.6 °F 29.99 in ESE 1.0 mph 3.0 mph 78% 0.00 in 12 W/m2
06:20 61.5 °F 55.3 °F 29.98 in ESE 2.0 mph 2.0 mph 80% 0.00 in 16 W/m2
06:26 61.2 °F 55.0 °F 29.96 in NE 1.0 mph 2.0 mph 80% 0.00 in 18 W/m2
06:32 61.9 °F 54.6 °F 29.98 in SSE 1.0 mph 2.0 mph 77% 0.00 in 23 W/m2
06:38 62.7 °F 54.3 °F 29.99 in South 1.0 mph 2.0 mph 74% 0.00 in 21 W/m2
06:44 63.2 °F 54.4 °F 30.00 in South 1.0 mph 2.0 mph 73% 0.00 in 30 W/m2
06:50 63.4 °F 54.6 °F 30.00 in WSW 1.0 mph 1.0 mph 73% 0.00 in 35 W/m2
06:56 63.6 °F 54.0 °F 30.01 in WSW 1.0 mph 1.0 mph 71% 0.00 in 51 W/m2
07:02 63.8 °F 55.0 °F 30.00 in WSW 1.0 mph 1.0 mph 73% 0.00 in 49 W/m2
07:08 63.2 °F 56.2 °F 30.00 in Calm   2.0 mph 78% 0.00 in 35 W/m2
07:14 62.7 °F 56.4 °F 29.99 in Calm     80% 0.00 in 32 W/m2
07:20 62.2 °F 56.3 °F 30.00 in Calm     81% 0.00 in 35 W/m2
07:26 62.1 °F 56.5 °F 30.00 in Calm     82% 0.00 in 37 W/m2
07:32 61.9 °F 57.0 °F 29.99 in Calm     84% 0.00 in 39 W/m2
07:38 61.6 °F 56.4 °F 29.99 in Calm     83% 0.00 in 40 W/m2
07:44 61.5 °F 56.6 °F 29.98 in Calm   1.0 mph 84% 0.00 in 40 W/m2
07:50 61.4 °F 56.5 °F 29.99 in Calm     84% 0.00 in 42 W/m2
07:56 61.5 °F 56.9 °F 29.98 in Calm     85% 0.00 in 53 W/m2
08:02 61.6 °F 56.7 °F 29.98 in Calm   1.0 mph 84% 0.00 in 67 W/m2
08:08 62.0 °F 57.1 °F 29.98 in Calm   3.0 mph 84% 0.00 in 69 W/m2
08:14 62.4 °F 56.1 °F 29.99 in SSE 1.0 mph 2.0 mph 80% 0.00 in 65 W/m2
08:20 62.9 °F 56.6 °F 29.99 in Calm     80% 0.00 in 67 W/m2
08:26 63.1 °F 57.2 °F 29.98 in Calm     81% 0.00 in 70 W/m2
08:32 63.2 °F 57.9 °F 29.98 in Calm     83% 0.00 in 132 W/m2
08:38 63.3 °F 58.0 °F 29.98 in Calm     83% 0.00 in 172 W/m2
08:44 63.6 °F 57.7 °F 29.98 in Calm   2.0 mph 81% 0.00 in 218 W/m2
08:50 64.3 °F 57.3 °F 29.98 in Calm     78% 0.00 in 216 W/m2
08:56 65.4 °F 58.0 °F 29.98 in Calm   1.0 mph 77% 0.00 in 292 W/m2
09:02 66.0 °F 56.3 °F 29.98 in SE 1.0 mph 3.0 mph 71% 0.00 in 211 W/m2
09:08 66.0 °F 56.7 °F 29.98 in SE 2.0 mph 3.0 mph 72% 0.00 in 241 W/m2
09:14 66.3 °F 57.0 °F 29.98 in SE 1.0 mph 2.0 mph 72% 0.00 in 272 W/m2
09:20 66.6 °F 57.3 °F 29.98 in ESE 1.0 mph 1.0 mph 72% 0.00 in 271 W/m2
09:26 66.8 °F 56.7 °F 29.97 in SE 1.0 mph 2.0 mph 70% 0.00 in 274 W/m2
09:32 67.2 °F 57.9 °F 29.97 in SE 2.0 mph 3.0 mph 72% 0.00 in 294 W/m2
09:38 67.6 °F 57.5 °F 29.96 in SE 1.0 mph 3.0 mph 70% 0.00 in 283 W/m2
09:44 67.9 °F 57.4 °F 29.96 in SE 2.0 mph 4.0 mph 69% 0.00 in 211 W/m2
09:50 68.0 °F 56.6 °F 29.96 in SSE 2.0 mph 2.0 mph 67% 0.00 in 244 W/m2
09:56 68.1 °F 57.5 °F 29.96 in SE 1.0 mph 2.0 mph 69% 0.00 in 248 W/m2
10:02 68.4 °F 57.4 °F 29.96 in SSE 1.0 mph 1.0 mph 68% 0.00 in 315 W/m2
10:08 69.8 °F 59.6 °F 29.96 in SSE 1.0 mph 1.0 mph 70% 0.00 in 598 W/m2
10:14 70.1 °F 58.2 °F 29.96 in NE 1.0 mph 2.0 mph 66% 0.00 in 420 W/m2
10:20 70.1 °F 57.8 °F 29.95 in South 2.0 mph 3.0 mph 65% 0.00 in 396 W/m2
10:26 70.4 °F 57.6 °F 29.95 in SE 3.0 mph 3.0 mph 64% 0.00 in 468 W/m2
10:32 70.8 °F 58.9 °F 29.95 in SE 2.0 mph 2.0 mph 66% 0.00 in 350 W/m2
10:38 70.8 °F 57.1 °F 29.94 in SSE 2.0 mph 3.0 mph 62% 0.00 in 506 W/m2
10:44 71.4 °F 57.2 °F 29.94 in SSE 3.0 mph 9.0 mph 61% 0.00 in 554 W/m2
10:50 71.5 °F 57.3 °F 29.94 in SSE 4.0 mph 4.0 mph 61% 0.00 in 213 W/m2
10:56 71.1 °F 57.4 °F 29.94 in SSE 2.0 mph 4.0 mph 62% 0.00 in 237 W/m2
11:04 71.1 °F 57.4 °F 29.94 in SE 2.0 mph 6.0 mph 62% 0.00 in 334 W/m2
11:10 71.5 °F 58.7 °F 29.93 in SSE 2.0 mph 2.0 mph 64% 0.00 in 262 W/m2
11:16 71.7 °F 57.1 °F 29.93 in SSE 3.0 mph 6.0 mph 60% 0.00 in 250 W/m2
11:22 71.7 °F 57.5 °F 29.93 in South 3.0 mph 4.0 mph 61% 0.00 in 251 W/m2
11:28 71.6 °F 57.9 °F 29.93 in South 3.0 mph 6.0 mph 62% 0.00 in 271 W/m2
11:34 71.8 °F 58.1 °F 29.93 in SE 3.0 mph 5.0 mph 62% 0.00 in 232 W/m2
11:40 71.6 °F 57.9 °F 29.92 in SSE 4.0 mph 4.0 mph 62% 0.00 in 195 W/m2
11:46 71.7 °F 58.4 °F 29.93 in SSE 2.0 mph 4.0 mph 63% 0.00 in 197 W/m2
11:52 71.8 °F 58.5 °F 29.93 in South 2.0 mph 2.0 mph 63% 0.00 in 269 W/m2
11:58 72.1 °F 57.0 °F 29.93 in South 4.0 mph 7.0 mph 59% 0.00 in 329 W/m2
12:04 72.3 °F 58.1 °F 29.93 in SSE 4.0 mph 5.0 mph 61% 0.00 in 257 W/m2
12:10 72.2 °F 57.1 °F 29.92 in SE 4.0 mph 6.0 mph 59% 0.00 in 163 W/m2
12:16 71.9 °F 56.8 °F 29.92 in SW 4.0 mph 6.0 mph 59% 0.00 in 113 W/m2
12:22 71.5 °F 56.4 °F 29.91 in SSE 5.0 mph 8.0 mph 59% 0.00 in 113 W/m2
12:28 71.4 °F 56.8 °F 29.91 in SSE 4.0 mph 8.0 mph 60% 0.00 in 123 W/m2
12:34 71.4 °F 58.1 °F 29.91 in South 3.0 mph 4.0 mph 63% 0.00 in 123 W/m2
12:40 71.3 °F 58.5 °F 29.92 in South 1.0 mph 1.0 mph 64% 0.00 in 44 W/m2
12:46 71.0 °F 59.9 °F 29.93 in WNW 1.0 mph 2.0 mph 68% 0.00 in 35 W/m2
12:52 69.7 °F 59.9 °F 29.93 in North 2.0 mph 3.0 mph 71% 0.22 in 69 W/m2
12:58 67.9 °F 61.1 °F 29.93 in North 2.0 mph 3.0 mph 79% 0.14 in 83 W/m2
13:04 67.2 °F 61.5 °F 29.93 in North 1.0 mph 1.0 mph 82% 0.07 in 42 W/m2
13:10 66.3 °F 61.7 °F 29.93 in Calm     85% 0.07 in 44 W/m2
13:16 65.8 °F 61.5 °F 29.93 in Calm   2.0 mph 86% 0.05 in 28 W/m2
13:22 65.4 °F 61.4 °F 29.92 in NE 1.0 mph 2.0 mph 87% 0.00 in 28 W/m2
13:28 65.2 °F 61.6 °F 29.92 in Calm   2.0 mph 88% 0.73 in 39 W/m2
13:34 65.2 °F 61.6 °F 29.92 in NNE 1.0 mph 3.0 mph 88% 0.16 in 83 W/m2
13:40 65.1 °F 61.8 °F 29.92 in NNE 1.0 mph 1.0 mph 89% 0.06 in 37 W/m2
13:46 65.0 °F 61.7 °F 29.93 in NNE 1.0 mph 1.0 mph 89% 0.39 in 51 W/m2
13:52 65.0 °F 61.7 °F 29.93 in NNE 1.0 mph 2.0 mph 89% 0.24 in 35 W/m2
13:58 64.8 °F 61.5 °F 29.93 in North 2.0 mph 2.0 mph 89% 0.29 in 76 W/m2
14:04 64.7 °F 61.7 °F 29.92 in NNE 2.0 mph 2.0 mph 90% 0.22 in 65 W/m2
14:10 64.6 °F 61.6 °F 29.92 in NE 2.0 mph 5.0 mph 90% 0.07 in 79 W/m2
14:16 64.5 °F 61.5 °F 29.91 in ENE 2.0 mph 5.0 mph 90% 0.04 in 116 W/m2
14:22 64.6 °F 61.6 °F 29.91 in ENE 1.0 mph 1.0 mph 90% 0.04 in 137 W/m2
14:28 65.0 °F 62.0 °F 29.91 in ENE 1.0 mph 3.0 mph 90% 0.04 in 102 W/m2
14:34 65.1 °F 62.4 °F 29.91 in ENE 1.0 mph 2.0 mph 91% 0.04 in 127 W/m2
14:40 65.1 °F 62.4 °F 29.90 in ENE 2.0 mph 2.0 mph 91% 0.00 in 69 W/m2
14:46 65.0 °F 62.0 °F 29.90 in ENE 2.0 mph 2.0 mph 90% 0.00 in 67 W/m2
14:52 64.8 °F 61.8 °F 29.90 in ENE 1.0 mph 2.0 mph 90% 0.00 in 60 W/m2
14:58 64.7 °F 62.0 °F 29.90 in East 1.0 mph 2.0 mph 91% 0.00 in 47 W/m2
15:04 64.6 °F 61.9 °F 29.90 in ESE 1.0 mph 2.0 mph 91% 0.00 in 69 W/m2
15:10 64.6 °F 61.9 °F 29.90 in ENE 1.0 mph 2.0 mph 91% 0.00 in 62 W/m2
15:16 64.7 °F 62.0 °F 29.90 in ENE 1.0 mph 2.0 mph 91% 0.00 in 105 W/m2
15:22 65.0 °F 62.3 °F 29.89 in SE 1.0 mph 1.0 mph 91% 0.00 in 141 W/m2
15:28 65.0 °F 62.3 °F 29.89 in SSE 2.0 mph 2.0 mph 91% 0.00 in 102 W/m2
15:34 65.0 °F 62.0 °F 29.89 in SSE 2.0 mph 4.0 mph 90% 0.00 in 81 W/m2
15:40 64.9 °F 61.9 °F 29.89 in SSE 2.0 mph 2.0 mph 90% 0.00 in 81 W/m2
15:46 64.9 °F 61.9 °F 29.89 in SE 2.0 mph 3.0 mph 90% 0.00 in 76 W/m2
15:52 64.9 °F 61.9 °F 29.88 in ESE 2.0 mph 2.0 mph 90% 0.00 in 91 W/m2
15:58 65.1 °F 62.4 °F 29.88 in SE 1.0 mph 2.0 mph 91% 0.00 in 70 W/m2
16:04 65.0 °F 62.0 °F 29.88 in ESE 2.0 mph 3.0 mph 90% 0.00 in 102 W/m2
16:10 65.1 °F 62.4 °F 29.88 in SE 2.0 mph 2.0 mph 91% 0.00 in 156 W/m2
16:16 65.3 °F 62.6 °F 29.88 in ESE 1.0 mph 2.0 mph 91% 0.00 in 169 W/m2
16:22 65.4 °F 62.7 °F 29.88 in SSE 1.0 mph 1.0 mph 91% 0.00 in 190 W/m2
16:28 65.5 °F 62.5 °F 29.88 in ENE 1.0 mph 1.0 mph 90% 0.00 in 171 W/m2
16:34 65.6 °F 62.6 °F 29.88 in East 1.0 mph 2.0 mph 90% 0.00 in 172 W/m2
16:40 65.9 °F 62.9 °F 29.87 in SE 1.0 mph 2.0 mph 90% 0.00 in 163 W/m2
16:46 65.7 °F 62.7 °F 29.87 in SE 1.0 mph 2.0 mph 90% 0.00 in 162 W/m2
16:52 65.8 °F 62.8 °F 29.87 in East 1.0 mph 1.0 mph 90% 0.00 in 148 W/m2
16:58 65.9 °F 62.9 °F 29.87 in East 1.0 mph 4.0 mph 90% 0.00 in 123 W/m2
17:04 65.8 °F 62.5 °F 29.87 in ENE 2.0 mph 2.0 mph 89% 0.00 in 118 W/m2
17:10 65.8 °F 62.5 °F 29.86 in ENE 2.0 mph 2.0 mph 89% 0.00 in 130 W/m2
17:16 65.8 °F 62.5 °F 29.86 in East 1.0 mph 2.0 mph 89% 0.00 in 167 W/m2
17:22 66.0 °F 63.0 °F 29.86 in ENE 1.0 mph 5.0 mph 90% 0.00 in 181 W/m2
17:28 66.1 °F 62.8 °F 29.86 in East 1.0 mph 5.0 mph 89% 0.00 in 139 W/m2
17:34 66.2 °F 62.9 °F 29.86 in ENE 1.0 mph 1.0 mph 89% 0.00 in 144 W/m2
17:40 66.2 °F 62.9 °F 29.86 in SSE 2.0 mph 2.0 mph 89% 0.00 in 151 W/m2
17:46 66.4 °F 63.1 °F 29.86 in East 1.0 mph 2.0 mph 89% 0.00 in 90 W/m2
17:52 66.3 °F 63.0 °F 29.86 in East 1.0 mph 2.0 mph 89% 0.00 in 60 W/m2
17:58 66.3 °F 63.0 °F 29.86 in East 1.0 mph 3.0 mph 89% 0.00 in 79 W/m2
18:04 66.3 °F 63.3 °F 29.85 in East 1.0 mph 1.0 mph 90% 0.00 in 69 W/m2
18:10 66.3 °F 63.3 °F 29.86 in Calm     90% 0.00 in 54 W/m2
18:16 66.2 °F 62.9 °F 29.86 in Calm     89% 0.00 in 49 W/m2
18:22 66.2 °F 63.2 °F 29.85 in Calm     90% 0.00 in 90 W/m2
18:28 66.4 °F 63.4 °F 29.85 in Calm   1.0 mph 90% 0.00 in 104 W/m2
18:34 66.5 °F 63.5 °F 29.85 in Calm     90% 0.00 in 69 W/m2
18:40 66.7 °F 64.0 °F 29.85 in Calm     91% 0.00 in 70 W/m2
18:46 66.8 °F 63.8 °F 29.85 in Calm   1.0 mph 90% 0.00 in 77 W/m2
18:52 66.7 °F 63.7 °F 29.85 in SE 1.0 mph 2.0 mph 90% 0.00 in 69 W/m2
18:58 66.7 °F 63.7 °F 29.85 in Calm   2.0 mph 90% 0.00 in 56 W/m2
19:04 66.8 °F 63.8 °F 29.85 in Calm     90% 0.00 in 47 W/m2
19:10 66.8 °F 63.8 °F 29.84 in Calm     90% 0.00 in 40 W/m2
19:16 66.8 °F 63.8 °F 29.84 in Calm     90% 0.00 in 44 W/m2
19:22 66.8 °F 64.1 °F 29.84 in Calm     91% 0.00 in 47 W/m2
19:28 66.8 °F 64.1 °F 29.84 in Calm     91% 0.00 in 39 W/m2
19:34 66.8 °F 64.1 °F 29.84 in Calm     91% 0.00 in 35 W/m2
19:40 66.8 °F 64.1 °F 29.84 in Calm     91% 0.00 in 35 W/m2
19:46 66.7 °F 64.0 °F 29.84 in Calm     91% 0.00 in 30 W/m2
19:52 66.7 °F 64.0 °F 29.83 in Calm     91% 0.00 in 26 W/m2
19:58 66.5 °F 63.8 °F 29.83 in Calm     91% 0.00 in 28 W/m2
20:04 66.5 °F 63.8 °F 29.83 in Calm     91% 0.00 in 19 W/m2
20:12 66.6 °F 64.2 °F 29.83 in Calm     92% 0.00 in 14 W/m2
20:18 66.6 °F 64.2 °F 29.83 in Calm     92% 0.00 in 7 W/m2
20:24 66.5 °F 64.1 °F 29.83 in Calm     92% 0.00 in 9 W/m2
20:30 66.3 °F 63.9 °F 29.83 in Calm   1.0 mph 92% 0.00 in 7 W/m2
20:36 66.0 °F 63.6 °F 29.83 in Calm   1.0 mph 92% 0.00 in 5 W/m2
20:42 65.8 °F 63.4 °F 29.83 in Calm     92% 0.00 in 0 W/m2
20:48 65.6 °F 63.2 °F 29.83 in Calm     92% 0.00 in 0 W/m2
20:54 65.5 °F 63.1 °F 29.83 in Calm     92% 0.00 in 0 W/m2
21:00 65.3 °F 62.9 °F 29.82 in Calm     92% 0.00 in 0 W/m2
21:06 65.1 °F 62.7 °F 29.82 in Calm     92% 0.00 in 0 W/m2
21:12 64.9 °F 62.8 °F 29.82 in Calm     93% 0.00 in 0 W/m2
21:18 64.8 °F 62.7 °F 29.82 in Calm     93% 0.00 in 0 W/m2
21:24 64.7 °F 62.6 °F 29.82 in Calm     93% 0.00 in 0 W/m2
21:30 64.5 °F 62.4 °F 29.82 in Calm     93% 0.00 in 0 W/m2
21:36 64.3 °F 62.2 °F 29.82 in Calm     93% 0.00 in 0 W/m2
21:42 64.3 °F 62.2 °F 29.82 in Calm     93% 0.00 in 0 W/m2
21:48 64.1 °F 62.0 °F 29.83 in Calm     93% 0.00 in 0 W/m2
21:54 64.1 °F 62.0 °F 29.83 in Calm     93% 0.00 in 0 W/m2
22:00 64.1 °F 62.0 °F 29.83 in Calm     93% 0.00 in 0 W/m2
22:06 63.9 °F 61.8 °F 29.83 in Calm     93% 0.00 in 0 W/m2
22:12 64.0 °F 61.9 °F 29.83 in Calm     93% 0.00 in 0 W/m2
22:18 63.9 °F 61.8 °F 29.83 in Calm     93% 0.00 in 0 W/m2
22:24 64.2 °F 62.1 °F 29.83 in Calm   2.0 mph 93% 0.00 in 0 W/m2
22:30 65.4 °F 63.6 °F 29.82 in SSW 1.0 mph 3.0 mph 94% 0.00 in 0 W/m2
22:36 67.4 °F 65.3 °F 29.82 in SSW 2.0 mph 3.0 mph 93% 0.00 in 0 W/m2
22:42 69.7 °F 66.0 °F 29.82 in South 3.0 mph 4.0 mph 88% 0.00 in 0 W/m2
22:48 71.6 °F 65.1 °F 29.82 in South 3.0 mph 4.0 mph 80% 0.00 in 0 W/m2
22:54 72.5 °F 64.5 °F 29.82 in South 3.0 mph 3.0 mph 76% 0.00 in 0 W/m2
23:00 72.9 °F 64.5 °F 29.82 in SSW 3.0 mph 3.0 mph 75% 0.00 in 0 W/m2
23:06 73.3 °F 64.1 °F 29.82 in South 3.0 mph 4.0 mph 73% 0.00 in 0 W/m2
23:12 73.7 °F 64.5 °F 29.82 in SSW 3.0 mph 3.0 mph 73% 0.00 in 0 W/m2
23:18 73.7 °F 64.1 °F 29.82 in SSW 3.0 mph 3.0 mph 72% 0.00 in 0 W/m2
23:24 73.8 °F 64.2 °F 29.82 in SW 3.0 mph 5.0 mph 72% 0.00 in 0 W/m2
23:30 73.9 °F 63.9 °F 29.82 in SSW 3.0 mph 4.0 mph 71% 0.00 in 0 W/m2
23:36 74.1 °F 63.7 °F 29.82 in SSE 4.0 mph 6.0 mph 70% 0.00 in 0 W/m2
23:42 74.1 °F 63.7 °F 29.82 in WSW 3.0 mph 3.0 mph 70% 0.00 in 0 W/m2
23:48 74.2 °F 63.8 °F 29.82 in South 3.0 mph 6.0 mph 70% 0.00 in 0 W/m2
23:54 74.3 °F 63.5 °F 29.82 in SSW 4.0 mph 4.0 mph 69% 0.00 in 0 W/m2
Country Meadow, Clay, NY, USA
Compliments of Weather Underground - 2 mb